Time;durP1;ratioP1;P1;durP2;ratioP2;P2;SDS_P1;SDS_P2;PMS_P1;PMS_P2;Temp;Humidity;BMP_temperature;BMP_pressure;BME280_temperature;BME280_humidity;BME280_pressure;Samples;Min_cycle;Max_cycle;Signal;HPM_P1;HPM_P2
2023/04/17 00:00:43;;;;;;;7.28;3.75;;;12.10;76.30;;;;;;4981976;28;20034;-69
2023/04/17 00:03:12;;;;;;;7.00;3.92;;;12.10;76.30;;;;;;5007171;28;20065;-72
2023/04/17 00:05:38;;;;;;;9.32;4.45;;;12.10;76.20;;;;;;4997999;28;20033;-67
2023/04/17 00:08:04;;;;;;;12.48;4.78;;;12.10;76.20;;;;;;4989481;28;20038;-67
2023/04/17 00:10:30;;;;;;;10.38;5.53;;;12.10;76.20;;;;;;5006510;28;20026;-68
2023/04/17 00:12:56;;;;;;;11.68;5.32;;;12.10;76.10;;;;;;5007798;28;20049;-68
2023/04/17 00:15:22;;;;;;;11.38;5.05;;;12.10;76.20;;;;;;5006679;28;20033;-69
2023/04/17 00:17:47;;;;;;;8.48;4.63;;;12.10;76.30;;;;;;4982708;28;20052;-68
2023/04/17 00:20:13;;;;;;;9.30;4.70;;;12.10;76.90;;;;;;5009432;28;20096;-68
2023/04/17 00:22:39;;;;;;;8.73;4.55;;;12.10;76.30;;;;;;5012085;28;20038;-68
2023/04/17 00:25:06;;;;;;;8.45;5.30;;;12.10;76.30;;;;;;5011660;28;20018;-69
2023/04/17 00:27:31;;;;;;;9.95;5.63;;;12.10;76.30;;;;;;5010929;28;20041;-67
2023/04/17 00:29:57;;;;;;;11.40;5.32;;;12.00;76.30;;;;;;4992413;28;20026;-68
2023/04/17 00:32:23;;;;;;;9.98;5.32;;;12.00;76.40;;;;;;5011144;28;20030;-68
2023/04/17 00:34:51;;;;;;;7.07;5.05;;;12.00;76.50;;;;;;4993230;28;20539;-68
2023/04/17 00:37:17;;;;;;;8.30;4.78;;;12.00;76.50;;;;;;5010762;28;20484;-68
2023/04/17 00:39:43;;;;;;;11.38;5.93;;;12.00;76.60;;;;;;5011293;28;20022;-68
2023/04/17 00:42:08;;;;;;;8.50;5.00;;;12.00;76.50;;;;;;5011352;28;20512;-69
2023/04/17 00:44:34;;;;;;;9.15;4.65;;;12.00;76.50;;;;;;4998947;28;20105;-67
2023/04/17 00:47:00;;;;;;;8.30;5.10;;;12.00;76.60;;;;;;5012010;28;20495;-68
2023/04/17 00:49:27;;;;;;;7.93;5.47;;;11.90;76.70;;;;;;5011150;28;20424;-68
2023/04/17 00:51:52;;;;;;;11.38;5.72;;;11.90;76.80;;;;;;5011735;28;20040;-68
2023/04/17 00:54:21;;;;;;;14.95;5.97;;;11.90;76.90;;;;;;5010782;28;20026;-68
2023/04/17 00:56:48;;;;;;;9.75;4.70;;;11.90;77.00;;;;;;5008153;28;20053;-69
2023/04/17 00:59:16;;;;;;;9.65;4.68;;;11.90;77.00;;;;;;5011965;28;20381;-68
2023/04/17 01:01:42;;;;;;;7.68;5.90;;;11.90;77.00;;;;;;5006902;28;20041;-68
2023/04/17 01:04:11;;;;;;;10.10;4.95;;;11.80;77.00;;;;;;5003778;28;20662;-68
2023/04/17 01:06:37;;;;;;;6.22;4.72;;;11.80;76.90;;;;;;5011501;28;20477;-69
2023/04/17 01:09:03;;;;;;;7.47;4.28;;;11.90;76.90;;;;;;5011091;28;20037;-68
2023/04/17 01:11:29;;;;;;;10.05;5.63;;;11.90;76.90;;;;;;4993679;28;20503;-68
2023/04/17 01:13:54;;;;;;;7.78;4.75;;;11.80;76.80;;;;;;4993114;28;20092;-68
2023/04/17 01:16:20;;;;;;;7.53;4.78;;;11.90;76.90;;;;;;5005111;28;20026;-68
2023/04/17 01:18:49;;;;;;;10.32;6.57;;;11.90;76.90;;;;;;5009968;28;20034;-68
2023/04/17 01:21:15;;;;;;;8.43;4.90;;;11.90;76.90;;;;;;5003951;28;20080;-68
2023/04/17 01:23:51;;;;;;;10.20;5.75;;;11.90;76.90;;;;;;5009622;28;20042;-67
2023/04/17 01:26:22;;;;;;;10.10;4.60;;;11.90;76.90;;;;;;5011155;28;20093;-68
2023/04/17 01:28:56;;;;;;;8.57;4.60;;;11.90;77.00;;;;;;5009619;28;20059;-67
2023/04/17 01:31:22;;;;;;;9.38;5.75;;;11.80;76.90;;;;;;5009986;28;20105;-67
2023/04/17 01:33:49;;;;;;;6.97;3.88;;;11.80;76.90;;;;;;4993927;28;20497;-67
2023/04/17 01:36:15;;;;;;;5.22;3.90;;;11.80;76.90;;;;;;5011481;28;20771;-69
2023/04/17 01:38:41;;;;;;;8.60;4.35;;;11.90;76.90;;;;;;5006212;28;20116;-68
2023/04/17 01:41:10;;;;;;;10.05;5.25;;;11.90;76.90;;;;;;5010815;28;20038;-68
2023/04/17 01:43:44;;;;;;;5.80;3.97;;;11.90;76.80;;;;;;5009869;28;20034;-67
2023/04/17 01:46:10;;;;;;;8.27;5.00;;;12.00;76.70;;;;;;5011412;28;20461;-69
2023/04/17 01:48:36;;;;;;;8.23;4.93;;;11.90;76.60;;;;;;4989637;28;20461;-69
2023/04/17 01:51:02;;;;;;;8.13;4.53;;;11.90;76.70;;;;;;5009253;28;20022;-69
2023/04/17 01:53:31;;;;;;;10.73;5.75;;;11.90;76.80;;;;;;5003264;28;20400;-67
2023/04/17 01:55:59;;;;;;;9.38;5.43;;;11.80;76.80;;;;;;4999579;28;20046;-67
2023/04/17 01:58:24;;;;;;;13.60;6.00;;;11.80;76.90;;;;;;5010276;28;20034;-68
2023/04/17 02:00:50;;;;;;;9.73;5.10;;;11.80;76.90;;;;;;5000013;28;20493;-67
2023/04/17 02:03:16;;;;;;;6.57;4.78;;;11.80;76.90;;;;;;5006569;28;20052;-68
2023/04/17 02:05:48;;;;;;;10.63;5.78;;;11.80;77.10;;;;;;4991829;28;20019;-68
2023/04/17 02:08:14;;;;;;;8.85;5.60;;;11.80;77.10;;;;;;5009265;28;20040;-69
2023/04/17 02:10:43;;;;;;;10.57;5.70;;;11.80;77.10;;;;;;5008623;28;20029;-68
2023/04/17 02:13:09;;;;;;;11.02;5.72;;;11.80;77.10;;;;;;5000290;28;20026;-68
2023/04/17 02:15:36;;;;;;;9.90;4.97;;;11.80;77.10;;;;;;5008477;28;20172;-69
2023/04/17 02:18:04;;;;;;;9.60;6.05;;;11.70;77.20;;;;;;5010426;28;20049;-68
2023/04/17 02:20:31;;;;;;;9.63;4.78;;;11.70;77.20;;;;;;5005165;28;20030;-68
2023/04/17 02:22:58;;;;;;;9.57;5.63;;;11.70;77.30;;;;;;4993064;28;20492;-68
2023/04/17 02:25:24;;;;;;;8.07;5.45;;;11.70;77.20;;;;;;5008919;28;20022;-68
2023/04/17 02:27:49;;;;;;;8.07;5.50;;;11.70;77.30;;;;;;5008698;28;20044;-68
2023/04/17 02:30:15;;;;;;;8.48;4.18;;;11.70;77.20;;;;;;4991825;28;20386;-68
2023/04/17 02:32:41;;;;;;;7.72;5.53;;;11.70;77.30;;;;;;5007889;28;20427;-68
2023/04/17 02:35:07;;;;;;;7.93;4.53;;;11.70;77.20;;;;;;4976711;28;20402;-68
2023/04/17 02:37:33;;;;;;;11.98;5.90;;;11.70;77.30;;;;;;5007487;28;20116;-68
2023/04/17 02:39:58;;;;;;;15.75;5.00;;;11.60;77.30;;;;;;5006620;28;20126;-68
2023/04/17 02:42:24;;;;;;;7.20;5.18;;;11.60;77.40;;;;;;4991918;28;20042;-68
2023/04/17 02:44:50;;;;;;;10.18;5.63;;;11.60;77.40;;;;;;5009238;28;20033;-68
2023/04/17 02:47:15;;;;;;;9.75;5.20;;;11.60;77.40;;;;;;5009855;28;20057;-67
2023/04/17 02:49:41;;;;;;;10.23;4.70;;;11.60;77.50;;;;;;5005238;28;20116;-63
2023/04/17 02:52:07;;;;;;;8.40;4.50;;;11.50;77.40;;;;;;5007575;28;20065;-64
2023/04/17 02:54:32;;;;;;;10.25;5.65;;;11.50;77.50;;;;;;5009100;28;20034;-67
2023/04/17 02:56:58;;;;;;;10.35;5.82;;;11.50;77.50;;;;;;5003149;28;20054;-67
2023/04/17 02:59:25;;;;;;;6.47;3.97;;;11.50;77.50;;;;;;5006015;28;20121;-69
2023/04/17 03:01:51;;;;;;;5.45;3.88;;;11.50;77.50;;;;;;5005584;28;20038;-69
2023/04/17 03:04:17;;;;;;;6.05;3.45;;;11.50;77.40;;;;;;4997527;28;20042;-67
2023/04/17 03:06:42;;;;;;;8.95;4.75;;;11.50;77.40;;;;;;5006993;28;20027;-68
2023/04/17 03:09:11;;;;;;;7.03;4.22;;;11.50;77.50;;;;;;5008369;28;20105;-67
2023/04/17 03:11:37;;;;;;;6.72;5.47;;;11.40;77.50;;;;;;5001598;28;20442;-68
2023/04/17 03:14:03;;;;;;;9.35;4.82;;;11.40;77.70;;;;;;5005247;28;20099;-67
2023/04/17 03:16:28;;;;;;;9.07;5.53;;;11.40;77.80;;;;;;4988086;28;20026;-69
2023/04/17 03:18:54;;;;;;;4.75;3.45;;;11.30;77.70;;;;;;4986586;28;20449;-69
2023/04/17 03:21:20;;;;;;;11.98;4.85;;;11.30;77.90;;;;;;4996056;28;20085;-69
2023/04/17 03:23:45;;;;;;;8.43;4.28;;;11.30;77.90;;;;;;5003782;28;20030;-68
2023/04/17 03:26:11;;;;;;;11.88;5.32;;;11.30;77.90;;;;;;5008744;28;20022;-69
2023/04/17 03:28:37;;;;;;;7.32;4.53;;;11.30;77.90;;;;;;4988568;28;20058;-69
2023/04/17 03:31:02;;;;;;;9.75;6.13;;;11.30;78.00;;;;;;4991231;28;20029;-69
2023/04/17 03:33:28;;;;;;;7.85;4.68;;;11.20;78.10;;;;;;5008182;28;20493;-68
2023/04/17 03:35:54;;;;;;;7.85;4.60;;;11.20;78.20;;;;;;4992154;28;20432;-68
2023/04/17 03:38:19;;;;;;;7.85;5.53;;;11.20;78.20;;;;;;5000746;28;20042;-68
2023/04/17 03:40:45;;;;;;;13.48;5.75;;;11.30;78.30;;;;;;5006471;28;20125;-69
2023/04/17 03:43:11;;;;;;;9.30;4.78;;;11.30;78.30;;;;;;4970117;28;20039;-68
2023/04/17 03:45:37;;;;;;;9.95;4.88;;;11.30;78.20;;;;;;4989669;28;20033;-69
2023/04/17 03:48:03;;;;;;;8.68;5.13;;;11.30;78.20;;;;;;4989067;28;20099;-67
2023/04/17 03:50:28;;;;;;;8.52;4.72;;;11.20;78.20;;;;;;5007372;28;20251;-67
2023/04/17 03:52:54;;;;;;;10.65;6.82;;;11.20;78.30;;;;;;5006646;28;20124;-67
2023/04/17 03:55:20;;;;;;;7.65;4.88;;;11.20;78.30;;;;;;5009588;28;20113;-68
2023/04/17 03:57:47;;;;;;;5.93;3.75;;;11.20;78.30;;;;;;5011337;28;20049;-68
2023/04/17 04:00:13;;;;;;;8.98;5.28;;;11.20;78.30;;;;;;4991131;28;20034;-68
2023/04/17 04:02:38;;;;;;;11.23;4.68;;;11.20;78.30;;;;;;5011826;28;20044;-68
2023/04/17 04:05:05;;;;;;;7.97;4.10;;;11.10;78.30;;;;;;5011802;28;20037;-68
2023/04/17 04:07:31;;;;;;;9.40;4.63;;;11.20;78.40;;;;;;5012147;28;20056;-69
2023/04/17 04:09:56;;;;;;;10.02;5.63;;;11.20;78.50;;;;;;5009765;28;20057;-68
2023/04/17 04:12:22;;;;;;;8.73;5.15;;;11.20;78.50;;;;;;5010681;28;20034;-68
2023/04/17 04:14:48;;;;;;;10.95;4.75;;;11.20;78.60;;;;;;5012432;28;20071;-67
2023/04/17 04:17:14;;;;;;;9.50;4.80;;;11.20;78.60;;;;;;5011020;28;20041;-68
2023/04/17 04:19:41;;;;;;;9.82;6.00;;;11.20;78.60;;;;;;5009355;28;20038;-67
2023/04/17 04:22:07;;;;;;;12.20;6.07;;;11.20;78.60;;;;;;5011196;28;20038;-68
2023/04/17 04:24:34;;;;;;;10.65;5.38;;;11.10;78.70;;;;;;4996003;28;20030;-68
2023/04/17 04:27:04;;;;;;;8.95;5.50;;;11.20;78.70;;;;;;5008947;28;20030;-67
2023/04/17 04:29:32;;;;;;;6.65;4.72;;;11.10;78.70;;;;;;4989917;28;20512;-64
2023/04/17 04:31:58;;;;;;;9.27;4.88;;;11.10;78.70;;;;;;4990452;28;20022;-69
2023/04/17 04:34:28;;;;;;;16.42;6.13;;;11.10;79.40;;;;;;4992392;28;20412;-68
2023/04/17 04:36:57;;;;;;;6.65;5.30;;;11.10;78.80;;;;;;5012129;28;20057;-64
2023/04/17 04:39:23;;;;;;;7.22;4.78;;;11.10;78.90;;;;;;5004477;28;20097;-71
2023/04/17 04:41:49;;;;;;;8.98;5.38;;;11.10;78.90;;;;;;5009968;28;20546;-68
2023/04/17 04:44:16;;;;;;;9.98;5.20;;;11.10;78.90;;;;;;5010369;28;20038;-67
2023/04/17 04:46:41;;;;;;;11.23;6.22;;;11.10;78.90;;;;;;5011070;28;20026;-67
2023/04/17 04:49:07;;;;;;;7.22;4.40;;;11.10;79.00;;;;;;5009743;28;20060;-69
2023/04/17 04:51:34;;;;;;;12.95;6.10;;;11.10;79.00;;;;;;5009195;28;20049;-68
2023/04/17 04:54:01;;;;;;;9.10;5.65;;;11.10;79.00;;;;;;5008578;28;20112;-68
2023/04/17 04:56:27;;;;;;;12.45;5.07;;;11.10;79.10;;;;;;5008838;28;20037;-68
2023/04/17 04:58:54;;;;;;;12.35;6.93;;;11.10;79.20;;;;;;5008294;28;20125;-69
2023/04/17 05:01:19;;;;;;;9.00;5.10;;;11.10;79.10;;;;;;5006502;28;20508;-68
2023/04/17 05:03:45;;;;;;;9.55;5.18;;;11.20;79.10;;;;;;4992332;28;20030;-68
2023/04/17 05:06:12;;;;;;;14.07;5.97;;;11.20;79.10;;;;;;5008890;28;20057;-68
2023/04/17 05:08:39;;;;;;;10.07;5.53;;;11.20;79.00;;;;;;5008833;28;20622;-68
2023/04/17 05:11:05;;;;;;;9.38;5.70;;;11.20;79.00;;;;;;4986654;28;20031;-68
2023/04/17 05:13:31;;;;;;;7.80;4.85;;;11.20;79.10;;;;;;5009427;28;20044;-68
2023/04/17 05:15:56;;;;;;;9.50;5.28;;;11.20;79.00;;;;;;4993105;28;20469;-68
2023/04/17 05:18:22;;;;;;;10.38;5.63;;;11.20;79.00;;;;;;5008732;28;20049;-68
2023/04/17 05:20:49;;;;;;;13.70;6.05;;;11.30;79.10;;;;;;5008633;28;20048;-68
2023/04/17 05:23:14;;;;;;;10.65;5.25;;;11.30;79.10;;;;;;4991890;28;20041;-68
2023/04/17 05:25:40;;;;;;;10.13;5.05;;;11.30;79.10;;;;;;5009020;28;20030;-68
2023/04/17 05:28:06;;;;;;;10.15;5.90;;;11.30;79.00;;;;;;4992363;28;20030;-67
2023/04/17 05:30:32;;;;;;;8.38;4.90;;;11.30;79.10;;;;;;4990504;28;20032;-68
2023/04/17 05:32:59;;;;;;;9.00;5.13;;;11.30;79.00;;;;;;4987690;28;20556;-68
2023/04/17 05:35:26;;;;;;;12.48;5.80;;;11.40;79.00;;;;;;5008913;28;20884;-68
2023/04/17 05:37:52;;;;;;;13.15;5.93;;;11.40;79.00;;;;;;4992487;28;20085;-68
2023/04/17 05:40:18;;;;;;;9.07;5.78;;;11.40;79.00;;;;;;4987765;28;20438;-68
2023/04/17 05:42:44;;;;;;;12.98;5.85;;;11.30;78.90;;;;;;4991074;28;20025;-68
2023/04/17 05:45:14;;;;;;;10.77;5.97;;;11.30;79.00;;;;;;4991013;28;20397;-68
2023/04/17 05:47:40;;;;;;;10.60;4.85;;;11.30;79.10;;;;;;5007393;28;20034;-68
2023/04/17 05:50:06;;;;;;;9.50;5.00;;;11.30;79.20;;;;;;4990485;28;20022;-68
2023/04/17 05:52:32;;;;;;;11.70;5.60;;;11.30;79.10;;;;;;4990659;28;20485;-69
2023/04/17 05:54:58;;;;;;;10.05;5.97;;;11.30;79.20;;;;;;5008890;28;20088;-69
2023/04/17 05:57:24;;;;;;;12.52;6.25;;;11.30;79.20;;;;;;5007882;28;20294;-68
2023/04/17 05:59:49;;;;;;;12.57;5.72;;;11.30;79.10;;;;;;4990547;28;20100;-68
2023/04/17 06:02:15;;;;;;;9.07;5.07;;;11.40;79.20;;;;;;5009576;28;20034;-68
2023/04/17 06:04:43;;;;;;;9.85;5.97;;;11.40;79.20;;;;;;5003236;28;20034;-68
2023/04/17 06:07:09;;;;;;;7.60;4.80;;;11.40;79.10;;;;;;4992519;28;20041;-69
2023/04/17 06:09:35;;;;;;;9.60;5.22;;;11.50;79.10;;;;;;5009202;28;20084;-68
2023/04/17 06:12:02;;;;;;;11.93;6.43;;;11.40;79.00;;;;;;5010546;28;20053;-68
2023/04/17 06:14:28;;;;;;;9.90;5.50;;;11.40;79.10;;;;;;5004728;28;20057;-68
2023/04/17 06:16:54;;;;;;;10.45;5.47;;;11.40;79.20;;;;;;5007559;28;20064;-68
2023/04/17 06:19:21;;;;;;;10.95;6.50;;;11.50;79.30;;;;;;5008550;28;20042;-68
2023/04/17 06:21:47;;;;;;;10.40;5.70;;;11.50;79.30;;;;;;5008329;28;20492;-68
2023/04/17 06:24:12;;;;;;;7.85;5.13;;;11.50;79.20;;;;;;5008957;28;20040;-68
2023/04/17 06:26:38;;;;;;;9.00;5.20;;;11.50;79.20;;;;;;5000538;28;20026;-68
2023/04/17 06:29:04;;;;;;;13.43;6.30;;;11.50;79.30;;;;;;5009629;28;20026;-68
2023/04/17 06:31:30;;;;;;;7.35;4.95;;;11.50;79.20;;;;;;5005434;28;20025;-68
2023/04/17 06:33:56;;;;;;;10.85;5.53;;;11.50;79.20;;;;;;4992335;28;20045;-69
2023/04/17 06:36:21;;;;;;;9.88;6.13;;;11.50;79.20;;;;;;5008656;28;20029;-68
2023/04/17 06:38:47;;;;;;;8.63;5.18;;;11.60;79.20;;;;;;5004119;28;20034;-68
2023/04/17 06:41:13;;;;;;;10.00;5.90;;;11.60;79.20;;;;;;4992981;28;20031;-68
2023/04/17 06:43:39;;;;;;;10.93;6.85;;;11.60;79.00;;;;;;4988674;28;20041;-68
2023/04/17 06:46:05;;;;;;;10.90;6.60;;;11.60;79.10;;;;;;5007067;28;20092;-68
2023/04/17 06:48:30;;;;;;;11.70;5.75;;;11.60;79.20;;;;;;5008237;28;20029;-68
2023/04/17 06:50:56;;;;;;;9.77;5.25;;;11.60;79.20;;;;;;5006833;28;20084;-68
2023/04/17 06:53:22;;;;;;;9.07;5.38;;;11.60;79.10;;;;;;4989602;28;20121;-68
2023/04/17 06:55:47;;;;;;;13.52;7.00;;;11.60;79.00;;;;;;5008083;28;20030;-69
2023/04/17 06:58:13;;;;;;;10.05;4.88;;;11.60;79.10;;;;;;5007282;28;20382;-67
2023/04/17 07:00:39;;;;;;;8.82;5.20;;;11.70;79.10;;;;;;4998657;28;20394;-68
2023/04/17 07:03:05;;;;;;;11.50;5.85;;;11.70;79.00;;;;;;5007140;28;20385;-68
2023/04/17 07:05:31;;;;;;;12.13;6.20;;;11.70;78.90;;;;;;5008285;28;20038;-69
2023/04/17 07:07:56;;;;;;;15.52;6.28;;;11.80;78.90;;;;;;5007539;28;20033;-69
2023/04/17 07:10:22;;;;;;;13.30;6.60;;;11.80;78.80;;;;;;4991053;28;20084;-67
2023/04/17 07:12:51;;;;;;;14.52;6.63;;;11.80;78.70;;;;;;5009867;28;20026;-67
2023/04/17 07:15:17;;;;;;;8.90;5.50;;;11.90;78.70;;;;;;4993114;28;20401;-70
2023/04/17 07:17:42;;;;;;;13.10;6.10;;;11.90;78.60;;;;;;5008801;28;20041;-69
2023/04/17 07:20:08;;;;;;;13.05;7.68;;;12.00;78.50;;;;;;5007732;28;20018;-70
2023/04/17 07:22:34;;;;;;;12.80;7.93;;;12.00;78.30;;;;;;5009703;28;20030;-70
2023/04/17 07:25:00;;;;;;;13.27;6.93;;;12.00;78.20;;;;;;5008259;28;20456;-68
2023/04/17 07:27:26;;;;;;;10.57;6.57;;;12.00;78.30;;;;;;4994826;28;20045;-69
2023/04/17 07:29:53;;;;;;;12.10;5.32;;;12.10;78.30;;;;;;5008119;28;20049;-69
2023/04/17 07:32:20;;;;;;;12.52;6.20;;;12.10;78.10;;;;;;5007752;28;20030;-69
2023/04/17 07:34:47;;;;;;;11.82;6.47;;;12.20;78.00;;;;;;5008326;28;20461;-70
2023/04/17 07:37:14;;;;;;;12.02;6.25;;;12.20;77.80;;;;;;4993911;28;20034;-67
2023/04/17 07:39:40;;;;;;;14.20;6.78;;;12.20;77.50;;;;;;5003224;28;20034;-69
2023/04/17 07:42:07;;;;;;;12.65;7.40;;;12.20;77.50;;;;;;5008648;28;20165;-70
2023/04/17 07:44:34;;;;;;;14.45;6.53;;;12.30;77.60;;;;;;5003270;28;20389;-68
2023/04/17 07:47:00;;;;;;;10.13;5.70;;;12.30;77.40;;;;;;5009403;28;20054;-68
2023/04/17 07:49:26;;;;;;;8.27;5.05;;;12.30;77.40;;;;;;5005314;28;20029;-68
2023/04/17 07:51:51;;;;;;;17.08;7.50;;;12.30;77.40;;;;;;4975102;28;20036;-68
2023/04/17 07:54:17;;;;;;;13.90;6.93;;;12.30;77.20;;;;;;5008438;28;20374;-69
2023/04/17 07:56:45;;;;;;;11.32;6.35;;;12.30;77.10;;;;;;4983966;28;20058;-68
2023/04/17 07:59:11;;;;;;;7.88;5.25;;;12.20;77.30;;;;;;4989605;28;20037;-69
2023/04/17 08:01:37;;;;;;;9.52;6.03;;;12.30;77.40;;;;;;5006835;28;20048;-69
2023/04/17 08:04:03;;;;;;;11.25;5.90;;;12.30;77.50;;;;;;5007877;28;20030;-69
2023/04/17 08:06:29;;;;;;;8.38;5.60;;;12.20;77.40;;;;;;5007730;28;20089;-68
2023/04/17 08:08:55;;;;;;;15.27;6.82;;;12.30;77.60;;;;;;5001464;28;20034;-69
2023/04/17 08:11:21;;;;;;;13.25;6.45;;;12.20;77.70;;;;;;5004491;28;20034;-68
2023/04/17 08:13:47;;;;;;;11.55;5.82;;;12.20;77.70;;;;;;5009164;28;20469;-69
2023/04/17 08:16:12;;;;;;;12.95;6.40;;;12.20;77.80;;;;;;4991599;28;20041;-68
2023/04/17 08:18:40;;;;;;;9.55;4.70;;;12.20;77.90;;;;;;5008418;28;20044;-68
2023/04/17 08:21:07;;;;;;;12.50;7.20;;;12.20;77.80;;;;;;4984475;28;20022;-69
2023/04/17 08:23:33;;;;;;;8.82;6.40;;;12.20;77.80;;;;;;5005307;28;20034;-69
2023/04/17 08:25:58;;;;;;;12.73;7.20;;;12.30;78.00;;;;;;5004732;28;20027;-68
2023/04/17 08:28:24;;;;;;;12.00;5.40;;;12.30;78.10;;;;;;4984650;28;20591;-68
2023/04/17 08:30:50;;;;;;;13.55;7.07;;;12.40;78.10;;;;;;5003876;28;20105;-69
2023/04/17 08:33:17;;;;;;;15.10;7.13;;;12.50;78.00;;;;;;5008533;28;20029;-68
2023/04/17 08:35:43;;;;;;;16.80;7.97;;;12.70;77.90;;;;;;4988871;28;20037;-68
2023/04/17 08:38:12;;;;;;;9.02;5.72;;;12.90;77.70;;;;;;5005889;28;20014;-68
2023/04/17 08:40:41;;;;;;;11.13;7.25;;;13.10;77.40;;;;;;5007741;28;20056;-68
2023/04/17 08:43:17;;;;;;;13.93;8.25;;;13.30;77.20;;;;;;5012750;28;20038;-74
2023/04/17 08:45:51;;;;;;;12.75;5.15;;;13.40;76.80;;;;;;5000019;28;20380;-69
2023/04/17 08:48:17;;;;;;;11.57;7.45;;;13.60;76.60;;;;;;5004991;28;20072;-68
2023/04/17 08:50:47;;;;;;;13.18;5.95;;;13.80;76.30;;;;;;5003538;28;20426;-68
2023/04/17 08:53:13;;;;;;;16.48;6.40;;;13.90;76.10;;;;;;5002919;28;20026;-70
2023/04/17 08:55:38;;;;;;;10.82;5.85;;;14.00;76.10;;;;;;5005368;28;20038;-68
2023/04/17 08:58:05;;;;;;;10.07;4.88;;;14.10;75.90;;;;;;4988633;28;20121;-68
2023/04/17 09:00:38;;;;;;;12.23;6.35;;;14.20;76.20;;;;;;4987444;28;20105;-68
2023/04/17 09:03:06;;;;;;;10.75;6.13;;;14.40;75.30;;;;;;4971573;28;20113;-68
2023/04/17 09:05:33;;;;;;;12.60;6.50;;;14.40;74.90;;;;;;4988062;28;20022;-68
2023/04/17 09:08:21;;;;;;;10.77;6.40;;;14.50;74.60;;;;;;4984197;28;20502;-69
2023/04/17 09:10:54;;;;;;;9.20;5.95;;;14.50;74.40;;;;;;4988735;28;20389;-69
2023/04/17 09:13:23;;;;;;;9.07;5.30;;;14.40;74.30;;;;;;4988821;28;20113;-69
2023/04/17 09:16:09;;;;;;;11.43;5.78;;;14.50;74.40;;;;;;4981029;28;20153;-69
2023/04/17 09:18:36;;;;;;;9.50;5.28;;;14.60;74.20;;;;;;4991320;28;20070;-68
2023/04/17 09:21:03;;;;;;;8.20;4.65;;;14.60;74.10;;;;;;4991681;28;20037;-68
2023/04/17 09:23:45;;;;;;;13.13;5.30;;;14.60;73.80;;;;;;4990481;28;20034;-68
2023/04/17 09:26:13;;;;;;;11.68;6.75;;;14.60;73.60;;;;;;4988087;28;20418;-68
2023/04/17 09:28:39;;;;;;;12.75;6.10;;;14.60;73.40;;;;;;4986659;28;20029;-68
2023/04/17 09:31:17;;;;;;;10.30;6.13;;;14.50;73.20;;;;;;4990079;28;20517;-68
2023/04/17 09:34:06;;;;;;;10.43;5.95;;;14.60;72.80;;;;;;4990175;28;20081;-68
2023/04/17 09:36:33;;;;;;;10.45;5.25;;;14.60;72.60;;;;;;4988968;28;20041;-68
2023/04/17 09:39:03;;;;;;;12.00;7.47;;;14.60;72.30;;;;;;4990096;28;20026;-68
2023/04/17 09:41:31;;;;;;;10.70;6.65;;;14.60;72.20;;;;;;4990112;28;20081;-68
2023/04/17 09:44:05;;;;;;;11.10;6.85;;;14.60;72.10;;;;;;4989582;28;20029;-68
2023/04/17 09:46:44;;;;;;;10.27;5.53;;;14.70;72.00;;;;;;4991809;28;20080;-68
2023/04/17 09:49:18;;;;;;;8.15;5.22;;;14.80;71.70;;;;;;4988458;28;20490;-68
2023/04/17 09:51:45;;;;;;;9.88;5.88;;;14.90;71.30;;;;;;4987704;28;20116;-68
2023/04/17 09:54:13;;;;;;;7.35;5.38;;;14.90;71.00;;;;;;4982125;28;20485;-69
2023/04/17 09:56:40;;;;;;;8.88;5.57;;;15.00;70.60;;;;;;4992164;28;20056;-68
2023/04/17 09:59:07;;;;;;;8.48;5.20;;;15.10;70.50;;;;;;4989855;28;20037;-68
2023/04/17 10:01:34;;;;;;;8.32;4.45;;;15.20;70.50;;;;;;5006257;28;20025;-68
2023/04/17 10:04:01;;;;;;;8.63;4.72;;;15.30;70.60;;;;;;5007046;28;20042;-68
2023/04/17 10:06:30;;;;;;;10.18;5.28;;;15.40;69.70;;;;;;5006398;28;20144;-69
2023/04/17 10:08:56;;;;;;;8.18;4.57;;;15.50;69.50;;;;;;5008897;28;20029;-68
2023/04/17 10:11:24;;;;;;;7.45;3.92;;;15.60;69.30;;;;;;5006778;28;20511;-69
2023/04/17 10:14:02;;;;;;;6.65;3.80;;;15.70;68.90;;;;;;5007691;28;20038;-69
2023/04/17 10:16:40;;;;;;;9.68;4.30;;;15.90;68.70;;;;;;5004577;28;20104;-69
2023/04/17 10:19:31;;;;;;;7.30;4.07;;;16.20;67.80;;;;;;5004568;28;20095;-69
2023/04/17 10:22:18;;;;;;;8.95;5.38;;;16.40;67.10;;;;;;4986808;28;20057;-69
2023/04/17 10:24:51;;;;;;;5.15;3.20;;;16.60;66.40;;;;;;4998313;28;20117;-68
2023/04/17 10:27:26;;;;;;;6.18;3.83;;;16.70;65.90;;;;;;5005343;28;20724;-68
2023/04/17 10:29:53;;;;;;;9.15;3.65;;;16.90;65.80;;;;;;5008474;28;20033;-68
2023/04/17 10:32:20;;;;;;;6.43;3.75;;;17.00;65.00;;;;;;5002502;28;20046;-68
2023/04/17 10:34:46;;;;;;;7.53;4.68;;;17.00;64.50;;;;;;5002260;28;20057;-68
2023/04/17 10:37:15;;;;;;;7.38;3.58;;;17.10;64.60;;;;;;5007329;28;20115;-68
2023/04/17 10:40:08;;;;;;;5.43;3.30;;;17.10;64.40;;;;;;5006931;28;20034;-68
2023/04/17 10:42:34;;;;;;;7.65;3.75;;;17.20;63.90;;;;;;4984463;28;20042;-68
2023/04/17 10:45:03;;;;;;;4.95;3.10;;;17.10;63.40;;;;;;5007262;28;20056;-68
2023/04/17 10:47:34;;;;;;;7.40;4.63;;;17.10;62.70;;;;;;5004541;28;20025;-68
2023/04/17 10:50:03;;;;;;;6.10;3.90;;;17.10;62.80;;;;;;5004736;28;20481;-68
2023/04/17 10:52:32;;;;;;;6.63;3.63;;;17.10;62.60;;;;;;5007653;28;20034;-69
2023/04/17 10:55:23;;;;;;;6.72;3.72;;;17.20;61.70;;;;;;5003095;28;20030;-69
2023/04/17 10:57:53;;;;;;;5.53;3.57;;;17.30;61.80;;;;;;5003514;28;20048;-68
2023/04/17 11:00:27;;;;;;;7.15;4.05;;;17.50;61.90;;;;;;4985577;28;20481;-68
2023/04/17 11:02:53;;;;;;;5.63;3.55;;;17.70;61.00;;;;;;5009154;28;20033;-69
2023/04/17 11:05:20;;;;;;;5.10;3.22;;;18.00;60.80;;;;;;5007393;28;20030;-68
2023/04/17 11:07:55;;;;;;;9.23;4.25;;;18.20;60.10;;;;;;5009197;28;20030;-68
2023/04/17 11:10:21;;;;;;;4.00;3.40;;;18.30;59.10;;;;;;5007502;28;20030;-69
2023/04/17 11:12:57;;;;;;;4.55;3.35;;;18.50;59.10;;;;;;4992365;28;20022;-68
2023/04/17 11:15:28;;;;;;;5.35;3.72;;;18.70;58.60;;;;;;5007606;28;20033;-69
2023/04/17 11:17:54;;;;;;;7.47;3.60;;;18.80;58.20;;;;;;4987104;28;20040;-69
2023/04/17 11:20:22;;;;;;;8.77;3.72;;;18.90;58.20;;;;;;5007306;28;20026;-68
2023/04/17 11:22:48;;;;;;;8.38;3.78;;;19.00;57.70;;;;;;5005855;28;20025;-68
2023/04/17 11:25:24;;;;;;;4.50;3.22;;;19.10;57.80;;;;;;5005521;28;20235;-69
2023/04/17 11:28:00;;;;;;;5.88;2.92;;;19.20;57.70;;;;;;5007946;28;20034;-70
2023/04/17 11:30:34;;;;;;;5.53;2.28;;;19.30;57.80;;;;;;5003708;28;20037;-70
2023/04/17 11:33:02;;;;;;;6.53;2.88;;;19.50;57.30;;;;;;5004073;28;20030;-68
2023/04/17 11:35:33;;;;;;;6.18;2.72;;;19.40;56.00;;;;;;4985380;28;20417;-68
2023/04/17 11:38:22;;;;;;;5.70;3.67;;;19.40;55.90;;;;;;5008526;28;20037;-67
2023/04/17 11:40:53;;;;;;;4.45;2.97;;;19.30;55.40;;;;;;5006855;28;20397;-68
2023/04/17 11:43:21;;;;;;;5.03;2.43;;;19.20;55.40;;;;;;4988458;28;20476;-67
2023/04/17 11:45:57;;;;;;;4.40;2.83;;;19.20;55.70;;;;;;4988338;28;20383;-67
2023/04/17 11:48:26;;;;;;;5.20;2.67;;;19.40;55.40;;;;;;4984756;28;20030;-68
2023/04/17 11:50:56;;;;;;;8.45;3.63;;;19.40;54.60;;;;;;4997158;28;20017;-68
2023/04/17 11:53:22;;;;;;;3.03;2.65;;;19.50;54.00;;;;;;4999565;28;20057;-68
2023/04/17 11:56:07;;;;;;;5.70;2.58;;;19.60;53.60;;;;;;5002706;28;20060;-68
2023/04/17 11:58:47;;;;;;;3.70;2.17;;;19.90;53.20;;;;;;4992710;28;20061;-68
2023/04/17 12:01:14;;;;;;;3.97;2.40;;;20.30;52.60;;;;;;4990929;28;20030;-68
2023/04/17 12:03:39;;;;;;;4.50;2.75;;;20.40;52.10;;;;;;5003693;28;20421;-68
2023/04/17 12:06:05;;;;;;;4.25;2.72;;;20.40;51.50;;;;;;4990124;28;20033;-68
2023/04/17 12:08:42;;;;;;;3.75;2.70;;;20.50;51.70;;;;;;4990712;28;20038;-68
2023/04/17 12:11:14;;;;;;;5.05;2.83;;;20.50;51.90;;;;;;5005041;28;20024;-68
2023/04/17 12:13:40;;;;;;;5.05;3.22;;;20.70;51.40;;;;;;5007155;28;20691;-68
2023/04/17 12:16:06;;;;;;;4.32;2.83;;;20.80;50.90;;;;;;5010290;28;20026;-68
2023/04/17 12:18:31;;;;;;;3.53;2.70;;;20.80;50.60;;;;;;5011385;28;20080;-68
2023/04/17 12:20:57;;;;;;;4.28;2.92;;;20.70;50.70;;;;;;5011486;28;20033;-68
2023/04/17 12:23:23;;;;;;;5.00;2.78;;;20.50;50.60;;;;;;5005588;28;20042;-68
2023/04/17 12:25:48;;;;;;;4.38;2.25;;;20.50;50.60;;;;;;4990645;28;20026;-68
2023/04/17 12:28:14;;;;;;;3.90;2.88;;;20.40;50.40;;;;;;5005530;28;20064;-68
2023/04/17 12:30:41;;;;;;;4.30;2.70;;;20.40;50.30;;;;;;5008583;28;20723;-68
2023/04/17 12:33:08;;;;;;;3.72;2.03;;;20.30;49.80;;;;;;5011022;28;20075;-68
2023/04/17 12:35:34;;;;;;;2.78;1.95;;;20.20;50.50;;;;;;4998771;28;20036;-68
2023/04/17 12:37:59;;;;;;;3.58;2.50;;;20.40;50.60;;;;;;4990534;28;20030;-68
2023/04/17 12:40:25;;;;;;;6.13;2.53;;;20.70;49.60;;;;;;5002647;28;20061;-69
2023/04/17 12:42:51;;;;;;;5.78;3.13;;;21.10;49.70;;;;;;5009042;28;20045;-69
2023/04/17 12:45:16;;;;;;;4.32;2.33;;;21.30;47.80;;;;;;5013067;28;20499;-67